Time;durP1;ratioP1;P1;durP2;ratioP2;P2;SDS_P1;SDS_P2;PMS_P1;PMS_P2;Temp;Humidity;BMP_temperature;BMP_pressure;BME280_temperature;BME280_humidity;BME280_pressure;Samples;Min_cycle;Max_cycle;Signal;HPM_P1;HPM_P2
2021/10/13 00:00:23;;;;;;;6.73;6.13;;;10.50;90.70;;;;;;4997757;28;20199;-87
2021/10/13 00:02:48;;;;;;;7.70;6.40;;;10.60;90.10;;;;;;4998532;28;20224;-87
2021/10/13 00:05:14;;;;;;;6.70;6.03;;;10.50;89.80;;;;;;5000210;28;20196;-87
2021/10/13 00:07:40;;;;;;;7.00;6.40;;;10.50;89.70;;;;;;5001514;28;20204;-87
2021/10/13 00:10:06;;;;;;;7.43;6.73;;;10.50;89.70;;;;;;4999356;28;20192;-88
2021/10/13 00:12:33;;;;;;;5.90;5.40;;;10.50;89.70;;;;;;5001065;28;20224;-88
2021/10/13 00:15:01;;;;;;;6.40;5.80;;;10.50;89.60;;;;;;5000524;28;20670;-88
2021/10/13 00:17:26;;;;;;;7.50;6.27;;;10.50;89.40;;;;;;4997990;28;20191;-88
2021/10/13 00:19:52;;;;;;;6.30;5.80;;;10.40;89.50;;;;;;5016742;28;20260;-86
2021/10/13 00:22:18;;;;;;;6.63;6.03;;;10.40;89.40;;;;;;5026511;28;20284;-87
2021/10/13 00:24:43;;;;;;;6.60;5.93;;;10.30;90.00;;;;;;5015056;28;20242;-88
2021/10/13 00:27:09;;;;;;;6.27;5.77;;;10.30;89.50;;;;;;5004140;28;20224;-87
2021/10/13 00:29:36;;;;;;;6.43;5.60;;;10.30;89.50;;;;;;5003651;28;20211;-88
2021/10/13 00:32:04;;;;;;;5.77;5.27;;;10.30;89.00;;;;;;5000463;28;20598;-88
2021/10/13 00:34:31;;;;;;;5.73;5.23;;;10.20;89.20;;;;;;4999278;28;20192;-88
2021/10/13 00:36:57;;;;;;;5.63;5.20;;;10.10;88.20;;;;;;5002425;28;20196;-89
2021/10/13 00:39:22;;;;;;;4.83;4.40;;;10.10;88.00;;;;;;4997282;28;20568;-88
2021/10/13 00:41:49;;;;;;;5.20;4.80;;;10.00;88.60;;;;;;4998942;28;20230;-89
2021/10/13 00:44:15;;;;;;;5.30;4.80;;;10.00;88.30;;;;;;4998395;28;20220;-88
2021/10/13 00:46:41;;;;;;;5.80;5.30;;;10.00;88.60;;;;;;5002153;28;20580;-88
2021/10/13 00:49:07;;;;;;;4.83;4.53;;;9.90;88.40;;;;;;4999359;28;20200;-88
2021/10/13 00:51:34;;;;;;;4.90;4.50;;;9.80;89.30;;;;;;4997842;28;20204;-87
2021/10/13 00:54:00;;;;;;;5.20;4.80;;;9.90;88.70;;;;;;5003158;28;20269;-88
2021/10/13 00:56:27;;;;;;;5.10;4.70;;;9.90;88.60;;;;;;4996620;28;20336;-87
2021/10/13 00:58:53;;;;;;;4.47;4.13;;;9.80;86.40;;;;;;4995897;28;20196;-88
2021/10/13 01:01:53;;;;;;;5.03;4.53;;;9.80;88.10;;;;;;5015755;28;20219;-89
2021/10/13 01:04:56;;;;;;;4.37;4.03;;;9.80;87.90;;;;;;5003825;28;20206;-88
2021/10/13 01:07:38;;;;;;;4.37;4.07;;;9.60;87.80;;;;;;5003461;28;20269;-88
2021/10/13 01:10:13;;;;;;;4.47;4.17;;;9.60;88.40;;;;;;4997300;28;20191;-88
2021/10/13 01:13:06;;;;;;;4.67;4.27;;;9.60;88.80;;;;;;4998242;28;20218;-88
2021/10/13 01:16:09;;;;;;;4.90;4.10;;;9.50;88.30;;;;;;5000096;28;20223;-88
2021/10/13 01:18:50;;;;;;;4.13;3.83;;;9.60;88.40;;;;;;5001466;28;20195;-88
2021/10/13 01:21:31;;;;;;;5.37;4.23;;;9.50;88.00;;;;;;5031358;28;20193;-86
2021/10/13 01:24:09;;;;;;;4.23;3.93;;;9.40;88.10;;;;;;5018616;28;20252;-88
2021/10/13 01:26:40;;;;;;;4.17;3.87;;;9.30;87.80;;;;;;5002981;28;20226;-87
2021/10/13 01:29:12;;;;;;;4.23;3.93;;;9.30;88.50;;;;;;5005744;28;20643;-88
2021/10/13 01:31:43;;;;;;;4.37;4.03;;;9.30;88.90;;;;;;5003401;28;20221;-88
2021/10/13 01:34:16;;;;;;;4.83;4.37;;;9.30;88.90;;;;;;4989036;28;20194;-89
2021/10/13 01:36:51;;;;;;;4.20;3.80;;;9.20;89.50;;;;;;5007915;28;20280;-89
2021/10/13 01:39:18;;;;;;;4.50;4.10;;;9.20;87.60;;;;;;5007463;28;20201;-89
2021/10/13 01:41:46;;;;;;;3.97;3.60;;;9.10;87.50;;;;;;5000212;28;20217;-89
2021/10/13 01:44:15;;;;;;;3.83;3.53;;;9.00;88.90;;;;;;5004989;28;20201;-89
2021/10/13 01:46:45;;;;;;;4.00;3.70;;;9.00;88.70;;;;;;4997152;28;20214;-89
2021/10/13 01:49:13;;;;;;;4.07;3.67;;;9.10;88.80;;;;;;5002160;28;20194;-89
2021/10/13 01:51:40;;;;;;;3.67;3.37;;;9.20;88.40;;;;;;5003584;28;20191;-89
2021/10/13 01:54:06;;;;;;;3.93;3.63;;;9.20;88.10;;;;;;5007253;28;20199;-89
2021/10/13 01:56:33;;;;;;;3.40;3.13;;;9.10;87.70;;;;;;5005262;28;20259;-89
2021/10/13 01:59:03;;;;;;;3.80;3.50;;;9.00;87.10;;;;;;5017724;28;20621;-89
2021/10/13 02:01:32;;;;;;;4.33;3.43;;;9.10;87.50;;;;;;5000208;28;20237;-89
2021/10/13 02:04:01;;;;;;;3.40;3.10;;;9.00;87.20;;;;;;5006442;28;20661;-89
2021/10/13 02:06:31;;;;;;;3.17;2.90;;;9.00;86.80;;;;;;5000907;28;20237;-89
2021/10/13 02:08:59;;;;;;;4.40;2.80;;;9.00;86.90;;;;;;5004647;28;20619;-88
2021/10/13 02:11:30;;;;;;;4.03;3.20;;;8.90;87.20;;;;;;5018837;28;20194;-88
2021/10/13 02:14:01;;;;;;;4.50;3.73;;;8.90;87.30;;;;;;5003373;28;20242;-87
2021/10/13 02:16:28;;;;;;;4.03;3.73;;;8.90;87.80;;;;;;5002804;28;20195;-88
2021/10/13 02:18:55;;;;;;;3.57;3.30;;;9.00;87.50;;;;;;5005775;28;20232;-88
2021/10/13 02:21:22;;;;;;;3.10;2.90;;;8.90;87.00;;;;;;5001773;28;20197;-88
2021/10/13 02:23:50;;;;;;;3.10;2.90;;;8.90;86.80;;;;;;5003591;28;20272;-88
2021/10/13 02:26:23;;;;;;;3.80;3.50;;;8.90;86.70;;;;;;5000496;28;20226;-88
2021/10/13 02:28:58;;;;;;;3.13;2.93;;;8.80;83.80;;;;;;5000683;28;20567;-88
2021/10/13 02:31:24;;;;;;;5.03;4.63;;;8.60;86.70;;;;;;5003896;28;20216;-87
2021/10/13 02:33:50;;;;;;;4.30;3.90;;;8.30;86.20;;;;;;5003250;28;20288;-88
2021/10/13 02:36:15;;;;;;;3.57;3.30;;;8.20;88.10;;;;;;5005162;28;20562;-88
2021/10/13 02:38:41;;;;;;;3.73;3.43;;;8.30;89.10;;;;;;5003908;28;20523;-88
2021/10/13 02:41:07;;;;;;;3.70;3.40;;;8.40;88.40;;;;;;5004444;28;20209;-87
2021/10/13 02:43:33;;;;;;;4.40;4.10;;;8.40;87.90;;;;;;5003468;28;20288;-88
2021/10/13 02:46:31;;;;;;;3.77;3.30;;;8.30;87.00;;;;;;5002259;28;20214;-87
2021/10/13 02:49:30;;;;;;;4.27;3.70;;;8.40;87.80;;;;;;5002145;28;20569;-87
2021/10/13 02:52:07;;;;;;;4.00;3.70;;;8.50;87.40;;;;;;4980652;28;20241;-89
2021/10/13 02:54:40;;;;;;;3.90;3.60;;;8.40;87.90;;;;;;5005952;28;20193;-88
2021/10/13 02:57:07;;;;;;;3.83;3.53;;;8.50;87.80;;;;;;5024298;28;20240;-89
2021/10/13 02:59:41;;;;;;;4.10;3.70;;;8.50;87.20;;;;;;5003228;28;20235;-88
2021/10/13 03:02:14;;;;;;;4.20;3.83;;;8.50;86.90;;;;;;5010248;28;20605;-88
2021/10/13 03:04:48;;;;;;;4.00;3.60;;;8.50;87.20;;;;;;5000620;28;20205;-88
2021/10/13 03:07:23;;;;;;;3.90;3.60;;;8.50;86.60;;;;;;5002165;28;20217;-88
2021/10/13 03:10:00;;;;;;;3.93;3.60;;;8.50;86.40;;;;;;5016843;28;20205;-87
2021/10/13 03:12:38;;;;;;;3.87;3.40;;;8.50;86.20;;;;;;5033020;28;20231;-88
2021/10/13 03:15:05;;;;;;;3.40;3.20;;;8.50;86.30;;;;;;5030724;28;20201;-87
2021/10/13 03:17:31;;;;;;;9.17;4.03;;;8.40;86.30;;;;;;5004991;28;20186;-87
2021/10/13 03:19:58;;;;;;;4.33;3.53;;;8.40;85.30;;;;;;5013965;28;20205;-88
2021/10/13 03:22:26;;;;;;;5.53;4.53;;;8.00;84.80;;;;;;5000784;28;20281;-88
2021/10/13 03:24:52;;;;;;;4.50;3.83;;;7.90;84.70;;;;;;5009204;28;20210;-88
2021/10/13 03:27:18;;;;;;;5.77;3.50;;;7.80;87.50;;;;;;5005733;28;20247;-88
2021/10/13 03:29:43;;;;;;;3.60;3.30;;;7.90;87.80;;;;;;4999457;28;20909;-88
2021/10/13 03:32:09;;;;;;;3.60;3.40;;;7.90;87.80;;;;;;5002570;28;20242;-88
2021/10/13 03:34:35;;;;;;;3.77;3.47;;;7.80;88.10;;;;;;4988353;28;20221;-87
2021/10/13 03:37:01;;;;;;;3.53;3.23;;;7.90;87.80;;;;;;5009846;28;20292;-89
2021/10/13 03:39:27;;;;;;;3.33;3.03;;;7.90;87.20;;;;;;5008472;28;20221;-87
2021/10/13 03:41:53;;;;;;;4.50;4.13;;;7.90;88.50;;;;;;5010419;28;20236;-88
2021/10/13 03:44:21;;;;;;;4.63;4.23;;;7.90;88.20;;;;;;5007092;28;20200;-88
2021/10/13 03:46:47;;;;;;;5.00;4.60;;;8.00;88.80;;;;;;5008767;28;20224;-89
2021/10/13 03:49:13;;;;;;;4.67;4.27;;;8.10;88.80;;;;;;5005362;28;20181;-89
2021/10/13 03:51:38;;;;;;;5.00;4.60;;;8.10;89.10;;;;;;5005044;28;20834;-88
2021/10/13 03:54:04;;;;;;;4.87;4.37;;;8.10;87.20;;;;;;5000248;28;20178;-88
2021/10/13 03:56:31;;;;;;;4.60;4.20;;;8.10;87.20;;;;;;5010850;28;20191;-87
2021/10/13 03:58:58;;;;;;;4.80;3.70;;;8.00;86.90;;;;;;5021627;28;20185;-87
2021/10/13 04:01:24;;;;;;;3.60;3.30;;;7.90;87.30;;;;;;5021354;28;20224;-87
2021/10/13 04:03:50;;;;;;;4.20;3.80;;;7.90;87.10;;;;;;5009034;28;20186;-87
2021/10/13 04:06:15;;;;;;;10.47;3.27;;;7.80;87.20;;;;;;5002674;28;20229;-87
2021/10/13 04:08:41;;;;;;;2.77;2.57;;;7.60;85.50;;;;;;5006040;28;20193;-88
2021/10/13 04:11:07;;;;;;;3.27;2.97;;;7.60;87.10;;;;;;5006773;28;20302;-87
2021/10/13 04:13:32;;;;;;;3.53;3.23;;;7.60;87.20;;;;;;5006475;28;20216;-87
2021/10/13 04:15:58;;;;;;;3.07;2.87;;;7.70;87.50;;;;;;5006644;28;20243;-88
2021/10/13 04:18:24;;;;;;;3.20;2.93;;;7.70;87.40;;;;;;5007494;28;20205;-87
2021/10/13 04:20:50;;;;;;;3.20;2.90;;;7.70;87.00;;;;;;5008262;28;20216;-87
2021/10/13 04:23:16;;;;;;;3.67;3.00;;;7.70;86.40;;;;;;5005261;28;20221;-87
2021/10/13 04:25:41;;;;;;;3.10;2.80;;;7.70;86.80;;;;;;5016385;28;20221;-88
2021/10/13 04:28:07;;;;;;;3.13;2.93;;;7.70;87.50;;;;;;5012439;28;20369;-88
2021/10/13 04:30:33;;;;;;;3.37;3.03;;;7.80;87.50;;;;;;5006369;28;20578;-88
2021/10/13 04:32:58;;;;;;;2.77;2.57;;;7.80;85.60;;;;;;5007134;28;20213;-87
2021/10/13 04:35:24;;;;;;;3.00;2.80;;;7.70;86.80;;;;;;5009038;28;20177;-88
2021/10/13 04:37:50;;;;;;;2.97;2.77;;;7.70;86.70;;;;;;5011078;28;20247;-88
2021/10/13 04:40:16;;;;;;;2.60;2.40;;;7.80;85.80;;;;;;4996891;28;20300;-88
2021/10/13 04:42:41;;;;;;;2.87;2.67;;;7.80;86.90;;;;;;5005473;28;20205;-89
2021/10/13 04:45:08;;;;;;;4.83;3.17;;;7.80;86.10;;;;;;5001007;28;20192;-88
2021/10/13 04:47:33;;;;;;;2.77;2.57;;;7.80;86.00;;;;;;5004010;28;20759;-88
2021/10/13 04:49:59;;;;;;;3.00;2.80;;;7.80;85.90;;;;;;4998510;28;20189;-88
2021/10/13 04:52:24;;;;;;;3.17;2.97;;;7.80;86.60;;;;;;5017885;28;20240;-88
2021/10/13 04:54:50;;;;;;;3.00;2.70;;;7.80;87.40;;;;;;5025363;28;20216;-88
2021/10/13 04:57:16;;;;;;;3.77;2.67;;;7.90;87.30;;;;;;5028353;28;20177;-88
2021/10/13 04:59:42;;;;;;;2.83;2.63;;;7.90;87.20;;;;;;5029768;28;20264;-88
2021/10/13 05:02:08;;;;;;;3.40;3.00;;;7.90;87.10;;;;;;5001563;28;20225;-88
2021/10/13 05:04:33;;;;;;;3.27;2.97;;;8.00;87.40;;;;;;5009174;28;20732;-87
2021/10/13 05:07:00;;;;;;;3.20;2.90;;;8.00;86.70;;;;;;5009492;28;20213;-88
2021/10/13 05:09:26;;;;;;;3.40;2.97;;;8.00;86.50;;;;;;5008357;28;20209;-88
2021/10/13 05:11:51;;;;;;;3.83;3.00;;;8.00;86.70;;;;;;5008317;28;20226;-87
2021/10/13 05:14:17;;;;;;;4.03;3.43;;;7.90;86.40;;;;;;5009293;28;20196;-88
2021/10/13 05:16:43;;;;;;;4.13;3.73;;;7.90;86.90;;;;;;5007891;28;20259;-88
2021/10/13 05:19:08;;;;;;;4.30;4.00;;;8.00;86.80;;;;;;5008859;28;20198;-88
2021/10/13 05:21:34;;;;;;;5.60;5.20;;;8.00;87.20;;;;;;5010172;28;20193;-88
2021/10/13 05:24:00;;;;;;;4.03;3.40;;;8.00;86.90;;;;;;5003128;28;20574;-88
2021/10/13 05:26:26;;;;;;;3.90;3.50;;;7.90;86.60;;;;;;5008671;28;20228;-89
2021/10/13 05:28:52;;;;;;;3.03;2.80;;;7.80;87.00;;;;;;5008276;28;20678;-87
2021/10/13 05:31:26;;;;;;;4.77;2.90;;;7.80;86.70;;;;;;5009838;28;20202;-87
2021/10/13 05:33:52;;;;;;;3.10;2.80;;;7.80;87.30;;;;;;5005879;28;20608;-89
2021/10/13 05:36:18;;;;;;;6.20;3.20;;;7.90;87.10;;;;;;5007334;28;20206;-89
2021/10/13 05:38:43;;;;;;;2.90;2.60;;;7.80;86.80;;;;;;5007388;28;20202;-89
2021/10/13 05:41:09;;;;;;;3.50;2.73;;;7.70;86.80;;;;;;4998352;28;20194;-88
2021/10/13 05:43:35;;;;;;;2.63;2.43;;;7.80;87.50;;;;;;5007080;28;20230;-87
2021/10/13 05:46:01;;;;;;;3.10;2.80;;;7.80;86.80;;;;;;5018161;28;20241;-87
2021/10/13 05:48:27;;;;;;;3.10;2.20;;;7.90;86.80;;;;;;5003357;28;20210;-87
2021/10/13 05:50:53;;;;;;;2.60;2.40;;;8.00;86.60;;;;;;5003085;28;20232;-86
2021/10/13 05:53:20;;;;;;;3.53;2.40;;;7.90;86.20;;;;;;5004710;28;20198;-87
2021/10/13 05:55:46;;;;;;;2.87;2.60;;;7.90;87.10;;;;;;5006319;28;20198;-87
2021/10/13 05:58:15;;;;;;;2.97;2.67;;;7.80;87.30;;;;;;5007299;28;20621;-87
2021/10/13 06:00:41;;;;;;;2.43;2.23;;;7.70;87.40;;;;;;4987645;28;20360;-87
2021/10/13 06:03:06;;;;;;;2.73;2.53;;;7.70;88.50;;;;;;5002872;28;20841;-87
2021/10/13 06:05:32;;;;;;;5.30;3.23;;;7.80;88.10;;;;;;5003702;28;20295;-86
2021/10/13 06:07:58;;;;;;;2.87;2.67;;;7.60;87.90;;;;;;4990859;28;20302;-87
2021/10/13 06:10:24;;;;;;;3.67;3.37;;;7.70;89.50;;;;;;4999199;28;20231;-87
2021/10/13 06:12:49;;;;;;;3.20;2.97;;;7.80;89.70;;;;;;5002681;28;20233;-87
2021/10/13 06:15:16;;;;;;;16.70;4.47;;;7.90;89.40;;;;;;5023586;28;20220;-86
2021/10/13 06:17:43;;;;;;;26.80;5.80;;;7.70;89.60;;;;;;5022994;28;20189;-86
2021/10/13 06:20:09;;;;;;;5.50;4.80;;;7.40;91.30;;;;;;5024815;28;20817;-86
2021/10/13 06:22:35;;;;;;;5.40;4.80;;;7.30;93.60;;;;;;5029214;28;20226;-86
2021/10/13 06:25:00;;;;;;;6.77;5.77;;;7.50;93.50;;;;;;5020368;28;20198;-86
2021/10/13 06:27:26;;;;;;;12.97;11.57;;;7.60;92.70;;;;;;5014740;28;20236;-87
2021/10/13 06:29:52;;;;;;;8.40;7.60;;;7.80;92.40;;;;;;5020218;28;20208;-87
2021/10/13 06:32:17;;;;;;;7.07;6.47;;;7.90;92.40;;;;;;5000569;28;20223;-86
2021/10/13 06:34:43;;;;;;;6.83;6.23;;;8.00;91.90;;;;;;5007111;28;20217;-86
2021/10/13 06:37:09;;;;;;;5.50;5.00;;;8.00;91.80;;;;;;5003277;28;20695;-86
2021/10/13 06:39:37;;;;;;;5.70;5.20;;;8.00;91.70;;;;;;5009520;28;20216;-87
2021/10/13 06:42:03;;;;;;;6.23;5.63;;;8.00;91.70;;;;;;5002661;28;20217;-86
2021/10/13 06:44:29;;;;;;;8.73;7.90;;;8.10;91.30;;;;;;5022665;28;20245;-86
2021/10/13 06:46:55;;;;;;;12.60;11.30;;;8.00;91.00;;;;;;5023020;28;20263;-86
2021/10/13 06:49:20;;;;;;;10.53;9.50;;;7.90;91.20;;;;;;5026027;28;20686;-86
2021/10/13 06:51:47;;;;;;;8.43;7.53;;;7.80;92.40;;;;;;5008126;28;20209;-87
2021/10/13 06:54:13;;;;;;;6.93;6.33;;;8.00;92.20;;;;;;5005423;28;20194;-86
2021/10/13 06:56:39;;;;;;;7.83;6.97;;;8.00;90.50;;;;;;5002379;28;20198;-86
2021/10/13 06:59:05;;;;;;;6.47;5.87;;;7.80;92.20;;;;;;5009879;28;20237;-87
2021/10/13 07:01:30;;;;;;;6.17;5.60;;;7.80;93.40;;;;;;5007681;28;20198;-87
2021/10/13 07:03:56;;;;;;;6.97;6.37;;;7.80;93.80;;;;;;5005143;28;20209;-87
2021/10/13 07:06:22;;;;;;;7.37;6.67;;;7.90;94.00;;;;;;5007266;28;20226;-87
2021/10/13 07:08:48;;;;;;;7.40;6.70;;;8.00;93.20;;;;;;5007072;28;20256;-87
2021/10/13 07:11:13;;;;;;;7.33;6.60;;;8.20;92.40;;;;;;5006340;28;20193;-87
2021/10/13 07:13:39;;;;;;;10.00;9.00;;;8.30;92.70;;;;;;5008224;28;20267;-87
2021/10/13 07:16:05;;;;;;;7.83;6.83;;;8.40;91.90;;;;;;5002025;28;20255;-86
2021/10/13 07:18:31;;;;;;;5.97;5.47;;;8.50;91.50;;;;;;4990320;28;20190;-86
2021/10/13 07:20:57;;;;;;;5.37;4.87;;;8.60;91.40;;;;;;5006668;28;20209;-86
2021/10/13 07:23:23;;;;;;;5.37;4.87;;;8.70;91.30;;;;;;5007640;28;20213;-87
2021/10/13 07:25:49;;;;;;;5.60;5.10;;;8.70;92.00;;;;;;5008196;28;20279;-86
2021/10/13 07:28:15;;;;;;;6.00;4.67;;;8.70;91.00;;;;;;5004513;28;20261;-87
2021/10/13 07:30:41;;;;;;;5.40;4.87;;;8.70;91.40;;;;;;5010926;28;20426;-85
2021/10/13 07:33:07;;;;;;;6.20;5.50;;;8.80;91.30;;;;;;5030218;28;20272;-86
2021/10/13 07:35:33;;;;;;;5.60;5.20;;;8.60;92.00;;;;;;5028557;28;20177;-85
2021/10/13 07:37:59;;;;;;;5.27;4.77;;;8.50;93.70;;;;;;5011548;28;20229;-86
2021/10/13 07:40:25;;;;;;;6.07;4.97;;;8.60;93.70;;;;;;5006873;28;20217;-87
2021/10/13 07:42:52;;;;;;;5.37;4.97;;;8.60;94.00;;;;;;5007393;28;20202;-87
2021/10/13 07:45:20;;;;;;;7.27;5.60;;;8.70;94.00;;;;;;5005536;28;20252;-87
2021/10/13 07:47:46;;;;;;;6.50;5.97;;;8.70;94.50;;;;;;5006364;28;20205;-87
2021/10/13 07:50:12;;;;;;;7.13;6.20;;;8.70;95.00;;;;;;5023078;28;20642;-86
2021/10/13 07:52:38;;;;;;;8.43;6.00;;;8.70;95.80;;;;;;5003194;28;20284;-87
2021/10/13 07:55:05;;;;;;;5.77;5.27;;;8.90;94.60;;;;;;4999846;28;20767;-86
2021/10/13 07:57:31;;;;;;;9.97;6.00;;;9.00;94.10;;;;;;5001624;28;20229;-87
2021/10/13 07:59:57;;;;;;;6.17;5.63;;;9.00;93.70;;;;;;5007133;28;20272;-87
2021/10/13 08:02:22;;;;;;;5.90;5.37;;;9.00;94.00;;;;;;5006145;28;20225;-87
2021/10/13 08:04:48;;;;;;;6.10;5.30;;;9.00;94.60;;;;;;5003029;28;20197;-87
2021/10/13 08:07:16;;;;;;;8.47;6.17;;;9.20;93.70;;;;;;5000457;28;20771;-87
2021/10/13 08:09:42;;;;;;;10.40;9.33;;;9.30;93.80;;;;;;4997173;28;20182;-87
2021/10/13 08:12:08;;;;;;;8.77;6.63;;;9.30;94.00;;;;;;5004301;28;20621;-87
2021/10/13 08:14:34;;;;;;;7.70;7.00;;;9.30;94.00;;;;;;4996498;28;20210;-87
2021/10/13 08:17:01;;;;;;;10.53;9.50;;;9.50;94.30;;;;;;4998214;28;20244;-87
2021/10/13 08:19:27;;;;;;;9.40;7.03;;;9.60;93.70;;;;;;5002261;28;20697;-87
2021/10/13 08:21:53;;;;;;;9.30;6.60;;;9.60;95.60;;;;;;5006224;28;20248;-86
2021/10/13 08:24:18;;;;;;;11.00;10.00;;;9.60;93.30;;;;;;5005797;28;20200;-86
2021/10/13 08:26:44;;;;;;;10.93;9.93;;;9.70;92.60;;;;;;4998914;28;20230;-87
2021/10/13 08:29:10;;;;;;;6.83;6.13;;;9.60;94.40;;;;;;4996078;28;20633;-87
2021/10/13 08:31:36;;;;;;;6.63;5.53;;;9.70;92.20;;;;;;5003649;28;20567;-86
2021/10/13 08:34:01;;;;;;;7.03;6.07;;;9.70;92.30;;;;;;5004301;28;20756;-89
2021/10/13 08:36:27;;;;;;;7.83;6.10;;;9.70;93.00;;;;;;5003330;28;20218;-87
2021/10/13 08:38:53;;;;;;;7.00;6.37;;;9.80;93.00;;;;;;5002819;28;20461;-88
2021/10/13 08:41:18;;;;;;;7.10;6.50;;;9.80;93.40;;;;;;5002666;28;20688;-88
2021/10/13 08:43:45;;;;;;;11.23;7.33;;;9.90;92.60;;;;;;5004904;28;20285;-88
2021/10/13 08:46:11;;;;;;;8.30;7.37;;;10.00;91.10;;;;;;5008429;28;20225;-88
2021/10/13 08:48:38;;;;;;;7.33;6.70;;;10.00;91.70;;;;;;5002525;28;20194;-88
2021/10/13 08:51:03;;;;;;;8.43;7.63;;;10.00;92.30;;;;;;5003415;28;20199;-88
2021/10/13 08:53:29;;;;;;;8.23;7.23;;;10.00;92.40;;;;;;5006413;28;20218;-88
2021/10/13 08:55:56;;;;;;;8.10;7.37;;;10.00;92.10;;;;;;5022345;28;20206;-88
2021/10/13 08:58:24;;;;;;;8.43;7.63;;;10.10;91.20;;;;;;4991766;28;20186;-87
2021/10/13 09:01:04;;;;;;;9.07;7.57;;;10.10;92.20;;;;;;5007808;28;20189;-88
2021/10/13 09:03:31;;;;;;;11.73;10.53;;;9.90;93.60;;;;;;5024926;28;20235;-88
2021/10/13 09:05:58;;;;;;;8.47;7.70;;;10.10;91.80;;;;;;5008097;28;20224;-88
2021/10/13 09:08:25;;;;;;;8.20;7.40;;;10.10;91.30;;;;;;5008560;28;20200;-86
2021/10/13 09:10:55;;;;;;;9.77;7.23;;;10.20;91.70;;;;;;5001418;28;20186;-89
2021/10/13 09:13:22;;;;;;;8.80;7.47;;;10.20;92.00;;;;;;4998916;28;20734;-89
2021/10/13 09:15:51;;;;;;;30.20;27.23;;;10.20;93.60;;;;;;5001641;28;20191;-88
2021/10/13 09:18:22;;;;;;;7.97;7.00;;;10.30;90.40;;;;;;4981409;28;20203;-86
2021/10/13 09:20:52;;;;;;;11.67;7.40;;;10.40;89.90;;;;;;4998939;28;20209;-87
2021/10/13 09:23:20;;;;;;;8.80;8.00;;;10.40;90.00;;;;;;4998832;28;20208;-87
2021/10/13 09:26:07;;;;;;;8.40;7.00;;;10.50;90.60;;;;;;4996195;28;20591;-87
2021/10/13 09:28:33;;;;;;;9.87;6.83;;;10.50;89.40;;;;;;5000076;28;20668;-86
2021/10/13 09:31:17;;;;;;;7.37;6.70;;;10.60;90.60;;;;;;4995237;28;20200;-87
2021/10/13 09:34:07;;;;;;;10.23;6.57;;;10.70;89.40;;;;;;5021090;28;20218;-86
2021/10/13 09:36:44;;;;;;;7.27;5.37;;;10.70;84.80;;;;;;5003185;28;20191;-86
2021/10/13 09:39:14;;;;;;;6.63;5.60;;;10.70;84.40;;;;;;5013435;28;20198;-87
2021/10/13 09:41:59;;;;;;;8.87;4.93;;;10.70;85.20;;;;;;5000687;28;20202;-86
2021/10/13 09:44:27;;;;;;;7.07;6.17;;;10.80;84.10;;;;;;5004436;28;20199;-86
2021/10/13 09:46:58;;;;;;;8.47;6.27;;;11.00;85.40;;;;;;5002797;28;20272;-86
2021/10/13 09:49:36;;;;;;;7.23;5.90;;;11.00;85.50;;;;;;5006027;28;20188;-85
2021/10/13 09:52:03;;;;;;;7.57;6.73;;;11.20;85.00;;;;;;5002977;28;20208;-87
2021/10/13 09:54:29;;;;;;;8.60;6.33;;;11.20;85.90;;;;;;5001852;28;20254;-87
2021/10/13 09:56:55;;;;;;;7.90;6.03;;;11.00;85.60;;;;;;5004103;28;20188;-87
2021/10/13 09:59:22;;;;;;;10.57;6.23;;;11.20;84.80;;;;;;5000603;28;20856;-87
2021/10/13 10:01:49;;;;;;;6.97;6.07;;;11.30;85.00;;;;;;5006205;28;20723;-86
2021/10/13 10:04:21;;;;;;;8.57;5.93;;;11.30;83.70;;;;;;5000270;28;20187;-88
2021/10/13 10:06:56;;;;;;;6.20;5.30;;;11.30;85.20;;;;;;5002176;28;20710;-87
2021/10/13 10:09:24;;;;;;;7.70;5.30;;;11.20;82.80;;;;;;5003527;28;20186;-87
2021/10/13 10:12:02;;;;;;;7.10;5.63;;;11.20;84.90;;;;;;5002455;28;20343;-88
2021/10/13 10:14:36;;;;;;;50.43;32.20;;;11.10;84.30;;;;;;5003345;28;20192;-86
2021/10/13 10:17:03;;;;;;;16.47;11.33;;;11.00;87.20;;;;;;5006425;28;20207;-87
2021/10/13 10:19:36;;;;;;;8.67;5.83;;;11.30;87.80;;;;;;5015500;28;20219;-86
2021/10/13 10:22:18;;;;;;;8.23;6.70;;;11.50;84.80;;;;;;5009768;28;20236;-87
2021/10/13 10:24:46;;;;;;;11.07;5.60;;;12.00;82.90;;;;;;5006646;28;20235;-88
2021/10/13 10:27:29;;;;;;;7.20;5.27;;;12.20;82.10;;;;;;5001523;28;20300;-86
2021/10/13 10:30:09;;;;;;;8.70;5.73;;;12.40;81.10;;;;;;5005072;28;20189;-88
2021/10/13 10:32:41;;;;;;;7.90;4.83;;;12.70;80.30;;;;;;5017985;28;20209;-88
2021/10/13 10:35:08;;;;;;;4.97;4.47;;;12.80;77.20;;;;;;4998994;28;20197;-88
2021/10/13 10:37:40;;;;;;;7.87;5.50;;;12.70;77.00;;;;;;5006734;28;20197;-89
2021/10/13 10:40:22;;;;;;;6.93;3.23;;;12.90;75.10;;;;;;5000003;28;20198;-88
2021/10/13 10:43:27;;;;;;;7.60;4.23;;;12.90;74.20;;;;;;5002509;28;20218;-87
2021/10/13 10:45:55;;;;;;;7.40;3.53;;;12.90;75.60;;;;;;5006180;28;20721;-88
2021/10/13 10:48:45;;;;;;;6.90;4.10;;;13.00;72.10;;;;;;5009934;28;20204;-88
2021/10/13 10:51:12;;;;;;;4.60;4.13;;;13.10;72.60;;;;;;5003660;28;20281;-89
2021/10/13 10:53:40;;;;;;;6.73;4.70;;;13.20;75.30;;;;;;5002984;28;20617;-87
2021/10/13 10:56:21;;;;;;;5.47;4.50;;;13.10;78.50;;;;;;5003957;28;20204;-87
2021/10/13 10:59:11;;;;;;;9.73;5.03;;;13.40;75.30;;;;;;5003767;28;20207;-88
2021/10/13 11:01:38;;;;;;;6.47;3.90;;;13.50;75.00;;;;;;5004136;28;20189;-87
2021/10/13 11:04:11;;;;;;;5.50;3.80;;;13.40;74.00;;;;;;5003853;28;20214;-88
2021/10/13 11:06:39;;;;;;;7.40;3.60;;;13.50;74.30;;;;;;5018896;28;20222;-87
2021/10/13 11:09:08;;;;;;;4.67;3.80;;;13.30;74.00;;;;;;5014348;28;20194;-88
2021/10/13 11:11:47;;;;;;;5.47;3.93;;;13.20;74.50;;;;;;4987852;28;20753;-87
2021/10/13 11:14:25;;;;;;;10.07;3.93;;;13.00;75.40;;;;;;5006292;28;20753;-87
2021/10/13 11:16:59;;;;;;;5.70;3.83;;;12.80;76.70;;;;;;4996836;28;20607;-87
2021/10/13 11:19:29;;;;;;;6.53;3.90;;;12.70;77.00;;;;;;5001072;28;20615;-87
2021/10/13 11:22:03;;;;;;;4.57;3.70;;;13.40;74.30;;;;;;4998781;28;20237;-88
2021/10/13 11:24:29;;;;;;;4.33;4.03;;;13.80;75.20;;;;;;5005583;28;20192;-87
2021/10/13 11:26:54;;;;;;;6.17;4.30;;;14.40;70.50;;;;;;5002346;28;20705;-87
2021/10/13 11:29:27;;;;;;;6.10;5.00;;;14.90;69.00;;;;;;5005139;28;20630;-87
2021/10/13 11:32:13;;;;;;;7.67;4.30;;;15.20;67.20;;;;;;5003323;28;20209;-87
2021/10/13 11:34:55;;;;;;;5.07;4.43;;;15.20;68.80;;;;;;5012888;28;20292;-87
2021/10/13 11:37:29;;;;;;;6.30;3.63;;;14.90;69.70;;;;;;5029505;28;20190;-87
2021/10/13 11:39:55;;;;;;;5.47;3.63;;;14.70;68.90;;;;;;5011783;28;20236;-86
2021/10/13 11:42:24;;;;;;;4.63;3.10;;;14.90;65.90;;;;;;5011884;28;20217;-87
2021/10/13 11:44:52;;;;;;;4.67;3.23;;;14.90;65.90;;;;;;5007633;28;20212;-87
2021/10/13 11:47:29;;;;;;;3.43;3.00;;;14.80;65.30;;;;;;5013063;28;20229;-87
2021/10/13 11:49:58;;;;;;;6.63;3.30;;;14.20;67.30;;;;;;5010686;28;20206;-87
2021/10/13 11:52:24;;;;;;;4.10;3.00;;;14.20;69.20;;;;;;5010141;28;20213;-87
2021/10/13 11:55:01;;;;;;;6.50;3.13;;;14.20;67.30;;;;;;5006507;28;20193;-87
2021/10/13 11:57:27;;;;;;;3.27;2.60;;;14.20;68.00;;;;;;5011536;28;20253;-85
2021/10/13 12:00:11;;;;;;;3.83;2.60;;;14.30;67.60;;;;;;5028061;28;20216;-86
2021/10/13 12:02:37;;;;;;;4.40;2.83;;;14.20;65.70;;;;;;5014988;28;20217;-86
2021/10/13 12:05:06;;;;;;;2.93;2.63;;;14.20;67.10;;;;;;5013960;28;20273;-87
2021/10/13 12:07:40;;;;;;;4.67;2.77;;;14.10;69.20;;;;;;4999173;28;20221;-86
2021/10/13 12:10:06;;;;;;;4.90;2.50;;;13.90;72.90;;;;;;5001953;28;20536;-86
2021/10/13 12:12:32;;;;;;;6.13;2.73;;;13.80;71.70;;;;;;4998636;28;20217;-86
2021/10/13 12:14:58;;;;;;;4.30;3.03;;;13.90;72.40;;;;;;5008530;28;20696;-86
2021/10/13 12:17:28;;;;;;;3.77;2.60;;;13.90;73.10;;;;;;5008746;28;20235;-86
2021/10/13 12:19:54;;;;;;;4.80;3.07;;;13.70;74.40;;;;;;5001417;28;20598;-86
2021/10/13 12:22:20;;;;;;;2.63;2.10;;;13.40;77.00;;;;;;5025540;28;20225;-85
2021/10/13 12:24:47;;;;;;;2.63;1.70;;;12.80;81.90;;;;;;4992286;28;20218;-86
2021/10/13 12:27:23;;;;;;;3.57;1.83;;;12.50;79.00;;;;;;5004944;28;21152;-85
2021/10/13 12:29:49;;;;;;;2.07;1.87;;;12.20;80.40;;;;;;5006075;28;20204;-87
2021/10/13 12:32:21;;;;;;;1.77;1.67;;;12.00;83.50;;;;;;5005559;28;20229;-86
2021/10/13 12:34:47;;;;;;;1.87;1.77;;;11.80;81.90;;;;;;5004762;28;20196;-87
2021/10/13 12:37:14;;;;;;;2.87;2.13;;;11.60;83.20;;;;;;5000485;28;20621;-85
2021/10/13 12:39:39;;;;;;;2.00;1.80;;;11.40;83.20;;;;;;5025769;28;20263;-86
2021/10/13 12:42:09;;;;;;;1.90;1.73;;;11.60;86.70;;;;;;5019434;28;20221;-86
2021/10/13 12:44:37;;;;;;;1.70;1.60;;;11.40;85.00;;;;;;5012511;28;20187;-87
2021/10/13 12:47:07;;;;;;;2.87;1.90;;;11.00;86.00;;;;;;5007339;28;20702;-87
2021/10/13 12:49:37;;;;;;;2.43;1.87;;;10.80;89.80;;;;;;5003373;28;20619;-87
2021/10/13 12:52:08;;;;;;;2.83;1.70;;;10.80;89.30;;;;;;4998427;28;20212;-86
2021/10/13 12:54:46;;;;;;;3.00;1.70;;;11.10;86.40;;;;;;5023876;28;20191;-87
2021/10/13 12:57:20;;;;;;;6.27;1.63;;;11.40;87.60;;;;;;5000274;28;20194;-86
2021/10/13 12:59:47;;;;;;;1.60;1.50;;;11.60;87.00;;;;;;5005537;28;20200;-87
2021/10/13 13:02:14;;;;;;;1.77;1.67;;;11.90;87.80;;;;;;4990595;28;20274;-86